Time;durP1;ratioP1;P1;durP2;ratioP2;P2;SDS_P1;SDS_P2;PMS_P1;PMS_P2;Temp;Humidity;BMP_temperature;BMP_pressure;BME280_temperature;BME280_humidity;BME280_pressure;Samples;Min_cycle;Max_cycle;Signal;HPM_P1;HPM_P2
2021/09/03 00:02:21;;;;;;;5.40;4.20;;;;;;;22.09;77.68;98069.53;4966764;28;20693;-65
2021/09/03 00:04:48;;;;;;;4.03;3.70;;;;;;;22.09;77.63;98059.28;4988962;28;20288;-65
2021/09/03 00:07:14;;;;;;;4.40;3.97;;;;;;;22.09;77.70;98051.59;4959304;28;20243;-65
2021/09/03 00:09:41;;;;;;;4.17;3.77;;;;;;;22.09;77.77;98056.72;4968138;28;20509;-65
2021/09/03 00:12:08;;;;;;;4.00;3.57;;;;;;;21.90;77.78;98016.81;4962488;28;20362;-65
2021/09/03 00:14:34;;;;;;;4.20;3.77;;;;;;;22.10;77.56;98053.34;4965569;28;20251;-65
2021/09/03 00:17:01;;;;;;;4.13;3.80;;;;;;;22.10;77.80;98055.91;4961787;28;20223;-63
2021/09/03 00:19:28;;;;;;;4.33;3.93;;;;;;;22.09;77.76;98052.50;4967248;28;20210;-65
2021/09/03 00:21:54;;;;;;;4.00;3.70;;;;;;;21.72;77.63;97972.63;4968151;28;20204;-65
2021/09/03 00:24:21;;;;;;;4.80;4.30;;;;;;;22.09;77.68;98044.81;4965413;28;20223;-66
2021/09/03 00:26:49;;;;;;;4.70;3.77;;;;;;;21.16;77.66;97880.22;4966934;28;20196;-65
2021/09/03 00:29:17;;;;;;;3.90;3.60;;;;;;;21.90;77.69;98013.41;4964387;28;20296;-65
2021/09/03 00:31:43;;;;;;;3.90;3.60;;;;;;;21.93;77.53;98014.34;4967390;28;20756;-65
2021/09/03 00:34:10;;;;;;;4.30;3.90;;;;;;;22.09;77.98;98039.69;4967092;28;20314;-65
2021/09/03 00:36:36;;;;;;;3.97;3.67;;;;;;;22.09;77.77;98032.00;4966457;28;20843;-65
2021/09/03 00:39:03;;;;;;;4.57;4.17;;;;;;;21.49;77.53;97922.31;4964040;28;20207;-65
2021/09/03 00:41:30;;;;;;;4.47;3.90;;;;;;;22.10;77.73;98026.06;4968656;28;20286;-65
2021/09/03 00:43:56;;;;;;;4.20;3.80;;;;;;;22.11;77.22;98024.38;4965720;28;20227;-65
2021/09/03 00:46:23;;;;;;;4.40;4.00;;;;;;;22.11;77.37;98026.94;4957314;28;20291;-65
2021/09/03 00:48:49;;;;;;;4.13;3.73;;;;;;;22.10;77.34;98023.50;4956308;28;20215;-65
2021/09/03 00:51:16;;;;;;;3.97;3.63;;;;;;;22.10;77.70;98026.06;4966737;28;20233;-65
2021/09/03 00:53:42;;;;;;;3.93;3.63;;;;;;;22.04;77.44;98007.06;4959533;28;20236;-65
2021/09/03 00:56:09;;;;;;;4.73;4.27;;;;;;;22.07;77.56;98009.72;4959569;28;20294;-65
2021/09/03 00:58:35;;;;;;;3.60;3.30;;;;;;;22.04;77.88;98013.06;4965844;28;20735;-65
2021/09/03 01:01:02;;;;;;;3.90;3.60;;;;;;;22.03;77.90;98013.00;4962331;28;20239;-64
2021/09/03 01:03:29;;;;;;;5.13;4.43;;;;;;;21.75;77.77;97979.56;4967059;28;20670;-65
2021/09/03 01:05:56;;;;;;;4.50;4.10;;;;;;;21.99;78.07;98009.44;4962484;28;20262;-68
2021/09/03 01:08:23;;;;;;;4.53;4.13;;;;;;;21.99;78.03;98009.44;4947419;28;20253;-65
2021/09/03 01:10:49;;;;;;;4.27;3.87;;;;;;;21.86;78.01;97989.38;4968173;28;20247;-65
2021/09/03 01:13:16;;;;;;;4.23;3.83;;;;;;;21.90;77.90;97993.78;4968001;28;20295;-65
2021/09/03 01:15:42;;;;;;;4.33;3.93;;;;;;;22.01;78.12;98009.50;4967003;28;20207;-65
2021/09/03 01:18:09;;;;;;;4.67;4.10;;;;;;;22.02;77.98;98008.72;4960963;28;20227;-65
2021/09/03 01:20:36;;;;;;;4.23;3.83;;;;;;;22.02;77.89;98007.00;4963980;28;20643;-65
2021/09/03 01:23:02;;;;;;;4.00;3.70;;;;;;;22.03;77.89;98005.31;4967995;28;20803;-65
2021/09/03 01:25:29;;;;;;;4.17;3.77;;;;;;;22.03;78.19;98005.31;4967362;28;20203;-65
2021/09/03 01:27:55;;;;;;;4.27;3.70;;;;;;;21.05;77.69;97833.81;4954896;28;20299;-65
2021/09/03 01:30:22;;;;;;;4.27;3.87;;;;;;;21.45;77.93;97902.59;4966862;28;20242;-65
2021/09/03 01:32:49;;;;;;;5.07;4.23;;;;;;;21.81;77.92;97962.75;4965849;28;20225;-65
2021/09/03 01:35:16;;;;;;;4.20;3.80;;;;;;;21.76;77.83;97955.75;4966547;28;20670;-65
2021/09/03 01:37:43;;;;;;;3.90;3.60;;;;;;;22.05;77.88;97998.56;4963985;28;20239;-65
2021/09/03 01:40:09;;;;;;;3.77;3.47;;;;;;;21.12;77.86;97838.34;4966553;28;20334;-65
2021/09/03 01:42:36;;;;;;;4.33;3.93;;;;;;;21.65;77.87;97929.75;4965700;28;20314;-65
2021/09/03 01:45:03;;;;;;;4.40;4.00;;;;;;;22.06;77.76;98003.75;4967029;28;20314;-65
2021/09/03 01:47:30;;;;;;;4.40;4.00;;;;;;;22.06;77.96;97996.06;4964596;28;20231;-65
2021/09/03 01:49:57;;;;;;;3.63;3.33;;;;;;;22.06;77.84;97993.50;4960666;28;20628;-65
2021/09/03 01:52:24;;;;;;;4.20;3.80;;;;;;;22.07;77.86;97999.47;4964318;28;20298;-65
2021/09/03 01:54:50;;;;;;;4.20;3.80;;;;;;;21.96;77.73;97976.06;4967243;28;20239;-63
2021/09/03 01:57:17;;;;;;;4.20;3.80;;;;;;;22.06;77.81;97993.50;4965920;28;20234;-65
2021/09/03 01:59:43;;;;;;;4.03;3.70;;;;;;;21.36;77.56;97875.03;4967096;28;20299;-65
2021/09/03 02:02:10;;;;;;;4.33;3.93;;;;;;;;;;4967344;28;20302;-65
2021/09/03 02:04:37;;;;;;;4.43;4.03;;;;;;;22.07;77.84;97991.81;4960275;28;20231;-65
2021/09/03 02:07:03;;;;;;;3.90;3.50;;;;;;;;;;4959029;28;20204;-65
2021/09/03 02:09:30;;;;;;;4.20;3.80;;;;;;;;;;4968095;28;20290;-65
2021/09/03 02:11:56;;;;;;;6.03;4.00;;;;;;;21.98;78.32;97971.88;4967141;28;20773;-65
2021/09/03 02:14:23;;;;;;;4.37;3.73;;;;;;;22.08;77.97;97989.28;4967245;28;20314;-65
2021/09/03 02:16:49;;;;;;;4.77;3.67;;;;;;;;;;4966965;28;20234;-64
2021/09/03 02:19:15;;;;;;;4.03;3.70;;;;;;;22.05;77.93;97986.63;4968984;28;20207;-65
2021/09/03 02:21:42;;;;;;;4.43;4.03;;;;;;;22.03;77.73;97984.84;4970705;28;20654;-65
2021/09/03 02:24:09;;;;;;;4.10;3.80;;;;;;;20.99;77.76;97814.88;4965783;28;20318;-63
2021/09/03 02:26:35;;;;;;;4.17;3.77;;;;;;;21.99;77.94;97986.41;4969904;28;20233;-65
2021/09/03 02:29:02;;;;;;;4.30;3.90;;;;;;;21.97;78.13;97988.06;4970556;28;20210;-63
2021/09/03 02:31:28;;;;;;;4.40;4.00;;;;;;;21.97;78.13;97988.06;4970501;28;20207;-65
2021/09/03 02:33:55;;;;;;;4.07;3.67;;;;;;;21.98;78.26;97983.81;4968821;28;20278;-65
2021/09/03 02:36:22;;;;;;;3.73;3.43;;;;;;;21.97;78.34;97982.94;4967926;28;20353;-65
2021/09/03 02:38:48;;;;;;;4.23;3.83;;;;;;;21.87;78.11;97964.66;4968720;28;20290;-65
2021/09/03 02:41:15;;;;;;;4.70;4.00;;;;;;;21.88;78.00;97964.72;4962074;28;20724;-65
2021/09/03 02:43:41;;;;;;;4.43;4.03;;;;;;;22.00;78.06;97992.41;4968976;28;20439;-65
2021/09/03 02:46:08;;;;;;;5.03;3.97;;;;;;;22.00;78.21;97989.84;4960447;28;20291;-65
2021/09/03 02:48:34;;;;;;;4.30;3.90;;;;;;;22.01;78.08;97978.78;4960229;28;20211;-65
2021/09/03 02:51:01;;;;;;;4.03;3.63;;;;;;;21.51;77.88;97892.56;4969932;28;20946;-65
2021/09/03 02:53:28;;;;;;;4.30;3.90;;;;;;;22.01;77.66;97971.13;4970045;28;20261;-65
2021/09/03 02:55:54;;;;;;;3.90;3.60;;;;;;;21.54;78.14;97887.56;4968707;28;20633;-65
2021/09/03 02:58:21;;;;;;;4.60;3.70;;;;;;;22.02;77.85;97970.31;4969518;28;20235;-65
2021/09/03 03:00:47;;;;;;;4.00;3.67;;;;;;;22.03;77.99;97966.94;4968381;28;20417;-65
2021/09/03 03:03:14;;;;;;;4.50;4.10;;;;;;;20.99;77.63;97789.31;4969902;28;20258;-65
2021/09/03 03:05:41;;;;;;;4.40;3.73;;;;;;;22.03;77.82;97970.38;4969416;28;20206;-65
2021/09/03 03:08:07;;;;;;;4.00;3.70;;;;;;;22.03;77.82;97969.47;4964872;28;20203;-65
2021/09/03 03:10:34;;;;;;;4.20;3.80;;;;;;;22.04;77.66;97971.22;4969864;28;20529;-65
2021/09/03 03:13:09;;;;;;;3.63;3.23;;;;;;;22.04;78.06;97977.22;4968074;28;20211;-65
2021/09/03 03:15:36;;;;;;;4.03;3.63;;;;;;;22.04;77.87;97978.91;4965915;28;20737;-65
2021/09/03 03:18:03;;;;;;;5.10;3.67;;;;;;;22.04;77.90;97966.97;4969190;28;20227;-65
2021/09/03 03:20:29;;;;;;;3.97;3.67;;;;;;;22.05;77.83;97967.84;4969517;28;20295;-65
2021/09/03 03:22:56;;;;;;;4.20;3.80;;;;;;;22.05;77.54;97967.84;4966206;28;20234;-65
2021/09/03 03:25:22;;;;;;;3.97;3.63;;;;;;;22.05;77.90;97965.31;4956932;28;20716;-65
2021/09/03 03:27:49;;;;;;;3.73;3.33;;;;;;;22.05;77.70;97965.31;4969519;28;20756;-64
2021/09/03 03:30:17;;;;;;;4.43;4.03;;;;;;;22.06;77.85;97967.03;4968611;28;20645;-65
2021/09/03 03:32:43;;;;;;;4.47;4.07;;;;;;;21.89;77.73;97934.88;4968278;28;20290;-65
2021/09/03 03:35:10;;;;;;;4.00;3.70;;;;;;;21.17;77.94;97812.97;4957412;28;20263;-65
2021/09/03 03:37:37;;;;;;;4.30;3.90;;;;;;;21.83;77.77;97921.84;4968305;28;20747;-64
2021/09/03 03:40:04;;;;;;;4.20;3.80;;;;;;;21.96;77.66;97952.19;4968007;28;20302;-65
2021/09/03 03:42:30;;;;;;;3.73;3.43;;;;;;;22.00;78.00;97959.16;4967686;28;20207;-64
2021/09/03 03:44:57;;;;;;;4.10;3.70;;;;;;;21.97;77.98;97957.38;4966853;28;20286;-65
2021/09/03 03:47:23;;;;;;;4.57;3.23;;;;;;;21.95;78.04;97953.88;4964086;28;20246;-65
2021/09/03 03:49:50;;;;;;;4.27;3.87;;;;;;;21.96;78.05;97958.16;4967471;28;20403;-65
2021/09/03 03:52:17;;;;;;;4.47;4.07;;;;;;;21.96;78.15;97953.03;4969131;28;20238;-65
2021/09/03 03:54:43;;;;;;;4.20;3.80;;;;;;;21.69;78.19;97906.88;5095544;22;20750;-67
2021/09/03 03:57:10;;;;;;;4.23;3.83;;;;;;;21.96;78.42;97955.59;4966044;28;20627;-67
2021/09/03 03:59:36;;;;;;;5.00;3.90;;;;;;;21.73;78.29;97901.88;4966051;28;20254;-67
2021/09/03 04:02:03;;;;;;;4.17;3.77;;;;;;;21.93;78.11;97944.41;4968733;28;20246;-67
2021/09/03 04:04:30;;;;;;;3.80;3.50;;;;;;;21.91;77.94;97941.78;4950310;28;20263;-67
2021/09/03 04:06:57;;;;;;;4.83;3.90;;;;;;;21.79;78.08;97912.34;4966900;28;20674;-67
2021/09/03 04:09:23;;;;;;;4.17;3.77;;;;;;;21.62;78.02;97887.00;4967272;28;20871;-67
2021/09/03 04:11:50;;;;;;;6.40;3.57;;;;;;;22.00;78.38;97951.47;4962925;28;20238;-67
2021/09/03 04:14:18;;;;;;;3.67;3.37;;;;;;;22.00;78.09;97949.78;4968333;28;20318;-68
2021/09/03 04:16:46;;;;;;;4.00;3.60;;;;;;;21.96;77.81;97944.50;4966997;28;20302;-68
2021/09/03 04:19:13;;;;;;;3.93;3.63;;;;;;;21.90;77.76;97941.75;4960503;28;20603;-67
2021/09/03 04:21:39;;;;;;;3.87;3.53;;;;;;;21.19;77.72;97817.31;4943148;28;20250;-68
2021/09/03 04:24:06;;;;;;;3.97;3.57;;;;;;;21.99;77.85;97952.28;4954055;28;20232;-68
2021/09/03 04:26:33;;;;;;;6.13;3.77;;;;;;;22.02;77.98;97950.69;4951188;28;20240;-68
2021/09/03 04:28:59;;;;;;;5.50;4.03;;;;;;;22.03;78.23;97949.00;4954703;28;20235;-68
2021/09/03 04:31:26;;;;;;;3.67;3.33;;;;;;;22.03;78.08;97946.44;4957102;28;20281;-68
2021/09/03 04:33:52;;;;;;;5.47;3.70;;;;;;;22.03;78.18;97939.66;4956194;28;20230;-68
2021/09/03 04:36:19;;;;;;;4.00;3.63;;;;;;;22.03;77.92;97936.22;4945476;28;20922;-69
2021/09/03 04:38:46;;;;;;;3.67;3.37;;;;;;;21.76;77.98;97884.09;4958508;28;20323;-68
2021/09/03 04:41:12;;;;;;;4.00;3.70;;;;;;;22.03;77.37;97931.09;4950436;28;20243;-68
2021/09/03 04:43:39;;;;;;;3.90;3.60;;;;;;;21.99;77.97;97919.88;4951830;28;20236;-68
2021/09/03 04:46:05;;;;;;;4.00;3.60;;;;;;;21.97;77.65;97921.53;4951500;28;20251;-67
2021/09/03 04:48:32;;;;;;;4.77;3.50;;;;;;;22.06;77.72;97932.09;4925010;28;20256;-69
2021/09/03 04:50:59;;;;;;;3.87;3.50;;;;;;;22.06;77.88;97928.63;4955399;28;20684;-68
2021/09/03 04:53:25;;;;;;;3.73;3.30;;;;;;;22.03;77.74;97938.78;4951440;28;20251;-69
2021/09/03 04:55:53;;;;;;;3.73;3.43;;;;;;;21.81;78.37;97898.78;4953401;28;20263;-68
2021/09/03 04:58:19;;;;;;;3.77;3.47;;;;;;;22.00;78.13;97941.22;4967985;28;20262;-68
2021/09/03 05:00:46;;;;;;;4.10;3.70;;;;;;;21.97;78.27;97936.88;4955887;28;20743;-69
2021/09/03 05:03:13;;;;;;;4.40;3.83;;;;;;;21.63;78.23;97893.00;4959263;28;20240;-69
2021/09/03 05:05:39;;;;;;;3.80;3.50;;;;;;;21.96;78.17;97940.25;4955432;28;20227;-67
2021/09/03 05:08:06;;;;;;;4.23;3.83;;;;;;;21.90;77.82;97926.38;4950283;28;20257;-69
2021/09/03 05:10:33;;;;;;;3.63;3.33;;;;;;;21.81;77.94;97911.56;4961158;28;20239;-68
2021/09/03 05:12:59;;;;;;;4.03;3.63;;;;;;;21.93;77.92;97932.47;4964892;28;20235;-68
2021/09/03 05:15:36;;;;;;;4.00;3.60;;;;;;;21.91;78.02;97923.88;4960224;28;20262;-68
2021/09/03 05:18:03;;;;;;;4.00;3.60;;;;;;;21.94;77.92;97928.22;4945914;28;20228;-68
2021/09/03 05:20:30;;;;;;;4.00;3.60;;;;;;;21.99;77.77;97936.94;4950367;28;20316;-68
2021/09/03 05:22:57;;;;;;;4.10;3.57;;;;;;;22.02;77.65;97935.34;4954376;28;20250;-68
2021/09/03 05:25:24;;;;;;;3.73;3.43;;;;;;;22.03;77.76;97939.66;4951200;28;20921;-67
2021/09/03 05:27:50;;;;;;;3.67;3.37;;;;;;;22.05;77.56;97944.81;4961514;28;20231;-67
2021/09/03 05:30:17;;;;;;;4.30;3.90;;;;;;;22.04;77.67;97936.25;4951118;28;20224;-68
2021/09/03 05:32:44;;;;;;;6.17;3.50;;;;;;;22.04;77.68;97935.38;4935815;28;20663;-68
2021/09/03 05:35:10;;;;;;;3.77;3.43;;;;;;;21.93;77.81;97922.22;4958054;28;20302;-68
2021/09/03 05:37:37;;;;;;;4.17;3.77;;;;;;;21.98;77.69;97930.94;4956330;28;20315;-68
2021/09/03 05:40:06;;;;;;;3.80;3.40;;;;;;;21.99;77.43;97934.38;4956933;28;20640;-68
2021/09/03 05:42:33;;;;;;;4.93;3.80;;;;;;;22.07;77.49;97953.41;4944071;28;20509;-68
2021/09/03 05:44:59;;;;;;;3.93;3.53;;;;;;;22.08;77.19;97950.06;4961998;28;20266;-69
2021/09/03 05:47:26;;;;;;;4.20;3.77;;;;;;;21.96;77.23;97930.00;4955152;28;20563;-67
2021/09/03 05:49:54;;;;;;;4.90;3.93;;;;;;;22.08;77.52;97947.50;4946561;28;20894;-68
2021/09/03 05:52:20;;;;;;;4.10;3.70;;;;;;;22.10;76.94;97948.38;4965917;28;20314;-68
2021/09/03 05:54:47;;;;;;;3.77;3.47;;;;;;;22.09;77.40;97952.66;4968460;28;20439;-67
2021/09/03 05:57:13;;;;;;;4.37;3.90;;;;;;;22.10;77.03;97946.72;4956413;28;20299;-68
2021/09/03 05:59:40;;;;;;;4.03;3.63;;;;;;;22.10;76.94;97945.81;4961139;28;20231;-68
2021/09/03 06:02:07;;;;;;;4.07;3.73;;;;;;;22.08;77.22;97953.47;4960969;28;20248;-67
2021/09/03 06:04:34;;;;;;;4.47;3.93;;;;;;;22.09;76.89;97954.34;4964258;28;20949;-68
2021/09/03 06:07:00;;;;;;;5.40;4.03;;;;;;;22.04;77.57;97953.28;4968356;28;20210;-68
2021/09/03 06:09:27;;;;;;;4.07;3.67;;;;;;;21.92;77.14;97937.53;4968807;28;20231;-68
2021/09/03 06:11:55;;;;;;;4.00;3.60;;;;;;;22.02;77.06;97958.38;4968762;28;20239;-68
2021/09/03 06:14:22;;;;;;;3.70;3.37;;;;;;;22.01;77.74;97963.44;4959135;28;20255;-68
2021/09/03 06:16:49;;;;;;;4.27;3.47;;;;;;;22.00;77.29;97962.59;4968015;28;20290;-67
2021/09/03 06:19:16;;;;;;;4.50;3.87;;;;;;;21.92;77.40;97945.19;4964289;28;20223;-68
2021/09/03 06:21:42;;;;;;;4.27;3.87;;;;;;;21.97;77.28;97954.81;4962076;28;20239;-67
2021/09/03 06:24:28;;;;;;;4.77;3.70;;;;;;;21.98;77.20;97947.97;4960150;28;20727;-68
2021/09/03 06:26:56;;;;;;;4.57;3.80;;;;;;;22.03;77.37;97960.13;4946412;28;20574;-66
2021/09/03 06:32:17;;;;;;;4.00;3.60;;;;;;;22.04;77.31;97951.63;4958587;28;20814;-68
2021/09/03 06:34:57;;;;;;;5.23;3.43;;;;;;;21.92;77.16;97940.09;4965353;28;20942;-68
2021/09/03 06:37:24;;;;;;;6.80;5.00;;;;;;;22.01;75.67;97954.06;4968341;28;20239;-68
2021/09/03 06:39:50;;;;;;;5.60;4.80;;;;;;;21.98;74.94;97948.84;4965247;28;20278;-68
2021/09/03 06:42:17;;;;;;;7.30;4.33;;;;;;;22.06;74.86;97959.34;4968997;28;20294;-68
2021/09/03 06:44:44;;;;;;;7.97;4.50;;;;;;;21.98;74.85;97938.63;4969747;28;20255;-68
2021/09/03 06:47:14;;;;;;;5.50;4.30;;;;;;;22.07;74.89;97955.97;4968593;28;20200;-68
2021/09/03 06:49:41;;;;;;;4.37;3.97;;;;;;;;;;4969993;28;20331;-68
2021/09/03 06:52:07;;;;;;;5.90;4.90;;;;;;;;;;4964515;28;20294;-68
2021/09/03 06:54:34;;;;;;;5.13;4.40;;;;;;;22.07;75.67;97950.84;4968327;28;20245;-68
2021/09/03 06:57:01;;;;;;;5.10;4.60;;;;;;;21.75;75.67;97893.44;4965060;28;20231;-67
2021/09/03 06:59:27;;;;;;;5.03;4.23;;;;;;;22.08;76.28;97962.84;4935663;28;20247;-67
2021/09/03 07:01:55;;;;;;;5.83;4.07;;;;;;;22.01;76.16;97930.16;4957452;28;20240;-67
2021/09/03 07:04:22;;;;;;;4.57;3.80;;;;;;;22.08;76.13;97945.78;4955972;28;20223;-67
2021/09/03 07:06:50;;;;;;;4.43;4.03;;;;;;;22.09;76.48;97946.66;4954650;28;20263;-68
2021/09/03 07:09:17;;;;;;;5.20;3.73;;;;;;;22.09;76.04;97950.09;4955300;28;20290;-67
2021/09/03 07:11:44;;;;;;;5.27;3.87;;;;;;;22.09;76.17;97952.66;4958059;28;20235;-67
2021/09/03 07:14:10;;;;;;;4.97;4.03;;;;;;;22.06;76.36;97946.56;4953204;28;20329;-67
2021/09/03 07:16:37;;;;;;;4.50;3.97;;;;;;;22.09;76.38;97946.66;4956075;28;21096;-67
2021/09/03 07:19:03;;;;;;;5.43;3.73;;;;;;;22.02;76.67;97942.16;4953811;28;20317;-67
2021/09/03 07:21:31;;;;;;;5.50;3.63;;;;;;;22.06;76.49;97951.69;4956294;28;20321;-67
2021/09/03 07:23:58;;;;;;;3.83;3.53;;;;;;;22.03;76.75;97947.34;4953288;28;20829;-69
2021/09/03 07:26:26;;;;;;;4.10;3.70;;;;;;;21.93;76.99;97927.34;4957450;28;20340;-67
2021/09/03 07:28:53;;;;;;;4.33;3.93;;;;;;;21.93;77.04;97923.94;4955518;28;20601;-66
2021/09/03 07:31:20;;;;;;;4.10;3.70;;;;;;;22.00;76.70;97933.56;4955533;28;20630;-67
2021/09/03 07:33:47;;;;;;;5.73;4.03;;;;;;;22.01;77.04;97932.72;4956496;28;20371;-67
2021/09/03 07:36:13;;;;;;;4.77;3.80;;;;;;;22.01;76.69;97932.72;4956808;28;20231;-68
2021/09/03 07:38:40;;;;;;;4.87;3.47;;;;;;;21.89;77.01;97910.16;4949652;28;20357;-67
2021/09/03 07:41:06;;;;;;;6.03;4.10;;;;;;;22.02;77.17;97930.22;4953644;28;20217;-67
2021/09/03 07:43:33;;;;;;;4.07;3.63;;;;;;;22.03;77.07;97937.09;4956422;28;20290;-67
2021/09/03 07:46:00;;;;;;;4.20;3.80;;;;;;;22.01;77.10;97925.94;4956301;28;20258;-66
2021/09/03 07:48:27;;;;;;;4.13;3.73;;;;;;;22.06;77.02;97938.88;4958358;28;20212;-67
2021/09/03 07:50:53;;;;;;;4.07;3.67;;;;;;;22.06;77.30;97931.19;4955961;28;20684;-68
2021/09/03 07:53:20;;;;;;;4.97;4.17;;;;;;;21.99;77.21;97916.47;4956926;28;20266;-67
2021/09/03 07:55:47;;;;;;;5.00;3.53;;;;;;;22.01;76.94;97925.94;4952100;28;20668;-67
2021/09/03 07:58:14;;;;;;;5.00;3.90;;;;;;;22.08;77.02;97934.69;4937607;28;20359;-66
2021/09/03 08:00:40;;;;;;;4.30;3.90;;;;;;;22.04;77.13;97926.03;4954631;28;20242;-67
2021/09/03 08:03:07;;;;;;;3.90;3.60;;;;;;;22.03;77.05;97925.97;4952270;28;20697;-67
2021/09/03 08:05:34;;;;;;;4.43;4.03;;;;;;;21.86;76.98;97893.81;4952069;28;20238;-67
2021/09/03 08:08:02;;;;;;;4.33;3.93;;;;;;;21.92;77.11;97906.81;4937232;28;20316;-68
2021/09/03 08:10:32;;;;;;;4.10;3.70;;;;;;;22.09;77.06;97933.84;4954003;28;20243;-67
2021/09/03 08:13:00;;;;;;;4.40;4.00;;;;;;;22.05;77.01;97924.34;4954147;28;20208;-67
2021/09/03 08:15:26;;;;;;;4.63;4.23;;;;;;;21.71;76.67;97866.00;4950249;28;20702;-67
2021/09/03 08:17:54;;;;;;;4.03;3.57;;;;;;;22.11;76.73;97937.34;4952257;28;20235;-67
2021/09/03 08:20:21;;;;;;;4.80;3.77;;;;;;;22.10;76.79;97930.47;4953744;28;20261;-67
2021/09/03 08:22:50;;;;;;;4.73;3.53;;;;;;;22.00;76.69;97911.41;4937232;28;20251;-67
2021/09/03 08:25:17;;;;;;;4.20;3.80;;;;;;;22.06;77.14;97929.53;4951903;28;20307;-67
2021/09/03 08:27:44;;;;;;;4.57;4.00;;;;;;;22.02;76.72;97925.09;4955243;28;20755;-67
2021/09/03 08:30:10;;;;;;;5.17;3.80;;;;;;;22.07;76.87;97943.16;4918817;28;20294;-68
2021/09/03 08:32:37;;;;;;;4.13;3.70;;;;;;;22.01;77.26;97928.47;4954195;28;20215;-66
2021/09/03 08:35:04;;;;;;;4.37;3.63;;;;;;;21.94;77.24;97910.31;4953113;28;20236;-67
2021/09/03 08:37:31;;;;;;;4.87;3.77;;;;;;;22.04;77.29;97931.16;4952730;28;20215;-69
2021/09/03 08:39:59;;;;;;;4.27;3.80;;;;;;;21.99;77.35;97926.69;4953091;28;20260;-67
2021/09/03 08:42:26;;;;;;;4.30;3.90;;;;;;;21.85;77.38;97905.75;4956503;28;20215;-68
2021/09/03 08:44:55;;;;;;;4.20;3.80;;;;;;;21.95;77.26;97929.97;4955477;28;20318;-67
2021/09/03 08:47:22;;;;;;;4.13;3.73;;;;;;;22.00;77.30;97928.44;4952933;28;20509;-68
2021/09/03 08:49:50;;;;;;;5.60;3.87;;;;;;;21.90;77.16;97911.88;4955457;28;20235;-68
2021/09/03 08:52:18;;;;;;;4.63;3.93;;;;;;;21.94;77.11;97924.00;4933813;28;20698;-66
2021/09/03 08:54:45;;;;;;;5.13;4.63;;;;;;;21.84;76.37;97906.56;4953919;28;20267;-67
2021/09/03 08:57:15;;;;;;;5.23;4.23;;;;;;;22.03;76.05;97942.22;4961883;28;20294;-67
2021/09/03 08:59:42;;;;;;;4.77;4.37;;;;;;;22.00;76.35;97929.31;4959766;28;20291;-67
2021/09/03 09:02:13;;;;;;;4.40;4.00;;;;;;;22.03;76.30;97926.84;4960716;28;20208;-67
2021/09/03 09:04:42;;;;;;;5.73;5.17;;;;;;;22.06;76.21;97938.88;4960404;28;20677;-67
2021/09/03 09:07:09;;;;;;;4.23;3.83;;;;;;;21.77;76.45;97888.38;4964605;28;20239;-67
2021/09/03 09:09:43;;;;;;;5.07;4.10;;;;;;;21.90;76.57;97913.59;4965124;28;20286;-67
2021/09/03 09:12:15;;;;;;;5.80;4.30;;;;;;;22.04;76.58;97940.50;4941109;28;20539;-67
2021/09/03 09:15:05;;;;;;;4.40;4.00;;;;;;;22.07;76.53;97945.72;4964241;28;20227;-67
2021/09/03 09:17:36;;;;;;;4.20;3.80;;;;;;;;;;4960709;28;20311;-68
2021/09/03 09:20:20;;;;;;;4.57;4.17;;;;;;;21.85;76.72;97899.75;4966015;28;20263;-67
2021/09/03 09:22:54;;;;;;;4.70;4.27;;;;;;;22.08;76.62;97934.69;4945375;28;20215;-67
2021/09/03 09:25:23;;;;;;;5.03;4.53;;;;;;;22.03;76.63;97933.66;4965592;28;20774;-68
2021/09/03 09:27:49;;;;;;;5.27;4.53;;;;;;;22.08;76.59;97932.13;4968367;28;20634;-67
2021/09/03 09:30:21;;;;;;;4.50;4.10;;;;;;;22.09;76.74;97931.28;4968074;28;20219;-67
2021/09/03 09:33:10;;;;;;;4.43;4.03;;;;;;;22.08;76.57;97927.00;4965907;28;20298;-68
2021/09/03 09:35:43;;;;;;;5.03;4.53;;;;;;;22.04;76.75;97922.59;4969509;28;20663;-67
2021/09/03 09:38:10;;;;;;;5.10;4.60;;;;;;;22.08;76.85;97932.13;4929863;28;20295;-67
2021/09/03 09:40:44;;;;;;;5.10;4.60;;;;;;;21.73;76.54;97866.91;4958330;28;20353;-67
2021/09/03 09:43:29;;;;;;;6.00;4.43;;;;;;;22.08;76.69;97919.34;4954860;28;20628;-67
2021/09/03 09:46:31;;;;;;;4.40;4.00;;;;;;;22.06;76.61;97918.41;4955629;28;20306;-67
2021/09/03 09:49:02;;;;;;;4.97;4.47;;;;;;;22.04;76.62;97904.66;4914477;29;20208;-67
2021/09/03 09:51:34;;;;;;;4.60;4.20;;;;;;;22.02;76.65;97914.00;4943704;28;20912;-68
2021/09/03 09:54:20;;;;;;;5.33;4.43;;;;;;;22.00;76.75;97915.63;4957935;28;20327;-67
2021/09/03 09:56:56;;;;;;;5.17;4.67;;;;;;;21.94;76.83;97897.50;4950961;28;20298;-67
2021/09/03 09:59:26;;;;;;;6.07;4.53;;;;;;;21.99;76.77;97913.91;4955179;28;20685;-69
2021/09/03 10:01:55;;;;;;;5.13;4.60;;;;;;;22.00;76.70;97908.84;4940452;28;21214;-67
2021/09/03 10:04:23;;;;;;;5.67;4.80;;;;;;;21.99;76.67;97904.50;4955949;28;20232;-68
2021/09/03 10:06:51;;;;;;;5.10;4.60;;;;;;;22.00;76.92;97911.41;4959223;28;20630;-67
2021/09/03 10:09:22;;;;;;;5.30;4.80;;;;;;;21.73;76.80;97859.22;4953303;28;20728;-66
2021/09/03 10:11:50;;;;;;;6.23;4.73;;;;;;;21.94;76.65;97883.03;4959223;28;20215;-66
2021/09/03 10:14:20;;;;;;;5.37;4.80;;;;;;;22.03;76.84;97897.81;4974332;28;20274;-67
2021/09/03 10:16:47;;;;;;;5.03;4.53;;;;;;;21.76;76.62;97851.69;4957350;28;20651;-67
2021/09/03 10:19:16;;;;;;;5.40;4.90;;;;;;;21.93;76.52;97873.59;4957018;28;20306;-67
2021/09/03 10:21:42;;;;;;;5.70;5.17;;;;;;;21.96;76.53;97881.38;4965384;28;20307;-68
2021/09/03 10:24:10;;;;;;;5.20;4.70;;;;;;;22.04;76.83;97895.31;4963514;28;20548;-68
2021/09/03 10:26:46;;;;;;;5.30;4.70;;;;;;;21.93;76.41;97865.94;4962745;28;20682;-68
2021/09/03 10:29:22;;;;;;;8.73;5.63;;;;;;;;;;4957054;28;20239;-67
2021/09/03 10:32:07;;;;;;;5.20;4.70;;;;;;;22.08;76.23;97880.94;4957477;28;20619;-67
2021/09/03 10:34:43;;;;;;;6.10;5.20;;;;;;;22.06;76.65;97878.31;4959096;28;20314;-68
2021/09/03 10:37:12;;;;;;;6.77;5.20;;;;;;;22.07;76.15;97876.63;4957740;28;20871;-68
2021/09/03 10:40:05;;;;;;;5.27;4.77;;;;;;;22.08;76.36;97870.69;4958343;28;20309;-66
2021/09/03 10:42:31;;;;;;;5.00;4.50;;;;;;;;;;4957118;28;20331;-68
2021/09/03 10:45:10;;;;;;;4.93;4.53;;;;;;;22.08;76.01;97871.53;4956028;28;20316;-68
2021/09/03 10:47:46;;;;;;;5.13;4.67;;;;;;;;;;4956964;28;20211;-68
2021/09/03 10:50:16;;;;;;;4.97;4.47;;;;;;;22.08;76.10;97866.44;4956045;28;20227;-67
2021/09/03 10:53:05;;;;;;;5.33;4.83;;;;;;;22.08;75.85;97868.13;4957543;28;20235;-68
2021/09/03 10:56:00;;;;;;;6.30;5.30;;;;;;;22.08;75.96;97863.88;4957098;28;20502;-68
2021/09/03 10:58:45;;;;;;;5.23;4.73;;;;;;;22.05;75.93;97868.03;4958105;28;20278;-68
2021/09/03 11:03:52;;;;;;;5.30;4.80;;;;;;;22.01;76.06;97864.50;4957238;28;20591;-68
2021/09/03 11:06:24;;;;;;;5.77;4.30;;;;;;;22.00;76.12;97879.81;4953784;28;20266;-68
2021/09/03 11:08:57;;;;;;;5.33;4.83;;;;;;;21.98;76.30;97858.41;4956110;28;20212;-68
2021/09/03 11:11:24;;;;;;;5.23;4.67;;;;;;;21.98;76.40;97849.03;4951773;28;20298;-68
2021/09/03 11:13:53;;;;;;;5.67;5.07;;;;;;;21.99;76.27;97848.22;4951217;28;20275;-68
2021/09/03 11:16:59;;;;;;;5.43;4.80;;;;;;;21.99;76.27;97855.03;4951458;28;20211;-68
2021/09/03 11:19:28;;;;;;;13.73;5.27;;;;;;;21.99;76.41;97850.78;4947844;28;20228;-68
2021/09/03 11:21:57;;;;;;;5.63;5.03;;;;;;;21.74;76.10;97812.41;4953167;28;23015;-68
2021/09/03 11:24:31;;;;;;;5.80;5.20;;;;;;;21.77;76.24;97807.41;4954512;28;20268;-69
2021/09/03 11:26:59;;;;;;;6.80;4.87;;;;;;;22.02;76.17;97853.44;4954693;28;20263;-68
2021/09/03 11:29:26;;;;;;;6.07;5.17;;;;;;;22.03;76.12;97841.50;4951417;28;20231;-68
2021/09/03 11:32:05;;;;;;;5.30;4.80;;;;;;;22.03;75.96;97844.97;4950863;28;20299;-68
2021/09/03 11:34:54;;;;;;;7.47;5.10;;;;;;;22.05;76.05;97832.22;4953064;28;20254;-69
2021/09/03 11:37:28;;;;;;;5.20;4.70;;;;;;;22.05;75.90;97834.75;4948895;28;20294;-68
2021/09/03 11:40:07;;;;;;;6.07;5.13;;;;;;;22.06;76.01;97833.94;4949214;28;20812;-68
2021/09/03 11:42:36;;;;;;;6.13;4.70;;;;;;;22.06;76.04;97827.13;4951320;28;20212;-71
2021/09/03 11:45:05;;;;;;;5.27;4.77;;;;;;;21.95;76.00;97805.44;4949049;28;20318;-68
2021/09/03 11:47:38;;;;;;;6.00;4.80;;;;;;;22.07;75.95;97830.53;4946996;28;20588;-68
2021/09/03 11:50:11;;;;;;;5.30;4.50;;;;;;;;;;4952677;28;21041;-67
2021/09/03 11:52:39;;;;;;;5.83;5.23;;;;;;;22.07;75.90;97822.88;4963719;28;20227;-69